Terminal Aerodrome Forecast
Issued by NWS

Home | Current Version | Previous Version | Text Only | Print | Product List | Glossary On
Versions: 1 2 3 4 5 6 7 8 9 10 11 12 13 14 15 16 17 18 19 20 21 22 23 24 25 26 27
000
FTUS42 KGSP 031240 AAA
TAFAND
TAF AMD
KAND 031240Z 0313/0412 23011KT P6SM -SHRA OVC007
      TEMPO 0313/0315 27015G25KT 1SM +TSRA SCT007 OVC012CB
     FM031500 24012G17KT P6SM -SHRA VCTS BKN035CB
     FM032000 24016G25KT P6SM -SHRA VCTS BKN040CB
     FM040000 25014G22KT P6SM BKN060
     FM040200 25009KT P6SM BKN110
     FM041000 23007KT P6SM BKN020=

USA.gov is the U.S. government's official web portal to all federal, state and local government web resources and services.